Bagshot, United Kingdom
Current Conditions -  °F | °C
As of 11:50 AM on Tuesday 21 Oct 2014 (Local Time) from EGLF Reporting Station
Broken Clouds Broken Clouds  
Wind Chill: 54°   Ceiling: 3700
Heat Index: 54°   Visibility: 6mi
Dew Point: 39°   Wind: 15mph
Humidity: 58%   Direction: 300°WNW
Pressure: 29.71"   Gusts: 28mph
Location:  51.36°N, 0.69°W
Report Text: EGLF 211050Z 30013G24KT 260V330 9999 BKN037 12/04 Q1006
Loading
Personal Weather Stations






























Interactive Weather Map New forecast layout! Learn more

10-Day Weather Forecast

Advertisements
Track Severe Weather on mobile